createdAt,value
2022-11-04T00:04:28.390Z,99671.22
2022-11-04T00:09:31.623Z,99655.09
2022-11-04T00:14:36.755Z,99645.66
2022-11-04T00:19:56.853Z,99635.38
2022-11-04T00:25:16.948Z,99630.66
2022-11-04T00:30:21.376Z,99619.13
2022-11-04T00:35:24.251Z,99628.56
2022-11-04T00:40:27.013Z,99649.38
2022-11-04T00:45:31.092Z,99648.47
2022-11-04T00:50:33.888Z,99642.50
2022-11-04T00:55:36.624Z,99626.53
2022-11-04T01:00:40.726Z,99636.22
2022-11-04T01:05:44.579Z,99624.50
2022-11-04T01:10:47.331Z,99616.41
2022-11-04T01:15:51.482Z,99615.59
2022-11-04T01:20:54.676Z,99604.13
2022-11-04T01:25:57.617Z,99605.44
2022-11-04T01:31:07.135Z,99613.00
2022-11-04T01:36:11.970Z,99605.44
2022-11-04T01:41:20.156Z,99595.84
2022-11-04T01:46:30.707Z,99594.13
2022-11-04T01:51:35.510Z,99598.00
2022-11-04T01:56:39.553Z,99595.69
2022-11-04T02:01:44.433Z,99573.47
2022-11-04T02:06:48.534Z,99576.19
2022-11-04T02:12:08.817Z,99580.34
2022-11-04T02:17:30.156Z,99585.66
2022-11-04T02:23:01.066Z,99597.94
2022-11-04T02:28:27.369Z,99581.59
2022-11-04T02:33:38.328Z,99568.97
2022-11-04T02:38:52.077Z,99575.25
2022-11-04T02:44:03.542Z,99581.44
2022-11-04T02:49:12.118Z,99579.53
2022-11-04T02:54:20.904Z,99587.88
2022-11-04T02:59:31.633Z,99598.47
2022-11-04T03:04:40.174Z,99609.13
2022-11-04T03:09:49.535Z,99581.66
2022-11-04T03:14:56.192Z,99569.13
2022-11-04T03:20:02.414Z,99584.72
2022-11-04T03:25:08.002Z,99580.44
2022-11-04T03:30:15.397Z,99597.47
2022-11-04T03:35:20.555Z,99598.34
2022-11-04T03:40:23.565Z,99605.81
2022-11-04T03:45:26.774Z,99596.69
2022-11-04T03:50:33.251Z,99587.97
2022-11-04T03:55:44.626Z,99594.94
2022-11-04T04:00:52.995Z,99599.50
2022-11-04T04:06:01.001Z,99591.22
2022-11-04T04:11:09.761Z,99607.06
2022-11-04T04:16:20.072Z,99608.31
2022-11-04T04:21:30.892Z,99625.44
2022-11-04T04:26:52.620Z,99628.44
2022-11-04T04:31:57.833Z,99645.38
2022-11-04T04:37:06.436Z,99647.31
2022-11-04T04:42:27.425Z,99657.91
2022-11-04T04:47:35.787Z,99670.25
2022-11-04T04:52:41.027Z,99674.63
2022-11-04T04:57:43.891Z,99680.63
2022-11-04T05:02:46.974Z,99692.28
2022-11-04T05:07:51.222Z,99700.44
2022-11-04T05:13:11.422Z,99695.41
2022-11-04T05:18:14.247Z,99722.50
2022-11-04T05:23:18.464Z,99727.69
2022-11-04T05:28:21.637Z,99731.50
2022-11-04T05:33:24.520Z,99733.69
2022-11-04T05:38:28.672Z,99740.19
2022-11-04T05:43:31.475Z,99752.00
2022-11-04T05:48:40.202Z,99757.66
2022-11-04T05:53:44.899Z,99765.13
2022-11-04T05:58:47.769Z,99773.56
2022-11-04T06:03:50.637Z,99779.84
2022-11-04T06:08:55.282Z,99793.44
2022-11-04T06:13:58.953Z,99798.31
2022-11-04T06:19:06.003Z,99804.16
2022-11-04T06:24:14.355Z,99809.03
2022-11-04T06:29:17.478Z,99804.56
2022-11-04T06:34:20.362Z,99819.38
2022-11-04T06:39:24.542Z,99825.94
2022-11-04T06:44:27.297Z,99825.38
2022-11-04T06:49:30.186Z,99842.34
2022-11-04T06:54:34.655Z,99845.25
2022-11-04T06:59:37.401Z,99838.44
2022-11-04T07:04:40.172Z,99849.72
2022-11-04T07:09:44.768Z,99868.06
2022-11-04T07:14:47.776Z,99871.13
2022-11-04T07:19:50.613Z,99878.56
2022-11-04T07:24:54.757Z,99903.91
2022-11-04T07:29:57.539Z,99897.81
2022-11-04T07:35:00.400Z,99918.53
2022-11-04T07:40:05.112Z,99935.66
2022-11-04T07:45:08.690Z,99937.91
2022-11-04T07:50:13.639Z,99947.53
2022-11-04T07:55:18.690Z,99935.19
2022-11-04T08:00:21.780Z,99926.09
2022-11-04T08:05:24.724Z,99948.31
2022-11-04T08:10:29.032Z,99955.03
2022-11-04T08:15:31.861Z,99948.53
2022-11-04T08:20:34.693Z,99958.16
2022-11-04T08:25:38.777Z,99966.66
2022-11-04T08:30:41.531Z,99969.91
2022-11-04T08:35:44.309Z,99969.69
2022-11-04T08:40:49.006Z,99969.84
2022-11-04T08:45:51.798Z,99973.38
2022-11-04T08:50:56.454Z,99967.56
2022-11-04T08:56:00.673Z,99987.22
2022-11-04T09:01:05.042Z,99986.19
2022-11-04T09:06:10.945Z,99986.19
2022-11-04T09:11:16.723Z,99991.88
2022-11-04T09:16:33.369Z,100002.41
2022-11-04T09:21:36.309Z,100005.56
2022-11-04T09:26:40.533Z,100017.34
2022-11-04T09:31:44.279Z,100017.41
2022-11-04T09:36:47.616Z,100027.09
2022-11-04T09:42:04.292Z,100032.97
2022-11-04T09:47:11.984Z,100025.50
2022-11-04T09:52:19.837Z,100046.00
2022-11-04T09:57:24.455Z,100047.50
2022-11-04T10:02:43.560Z,100049.03
2022-11-04T10:08:02.720Z,100050.16
2022-11-04T10:13:23.233Z,100059.47
2022-11-04T10:18:36.607Z,100058.66
2022-11-04T10:23:44.362Z,100051.25
2022-11-04T10:28:55.651Z,100039.59
2022-11-04T10:34:06.270Z,100046.50
2022-11-04T10:39:18.350Z,100032.72
2022-11-04T10:44:26.741Z,100037.31
2022-11-04T10:49:39.363Z,100029.44
2022-11-04T10:54:44.562Z,100027.88
2022-11-04T10:59:55.813Z,100045.22
2022-11-04T11:05:14.921Z,100050.16
2022-11-04T11:10:20.146Z,100048.28
2022-11-04T11:15:32.797Z,100067.28
2022-11-04T11:20:38.294Z,100072.16
2022-11-04T11:25:46.878Z,100076.03
2022-11-04T11:30:58.855Z,100110.94
2022-11-04T11:36:06.820Z,100111.63
2022-11-04T11:41:28.198Z,100112.97
2022-11-04T11:46:34.997Z,100114.06
2022-11-04T11:51:39.545Z,100124.72
2022-11-04T11:57:12.037Z,100124.72
2022-11-04T12:02:26.518Z,100120.44
2022-11-04T12:13:23.614Z,100120.91
2022-11-04T12:18:43.939Z,100116.88
2022-11-04T12:23:51.309Z,100128.72
2022-11-04T12:29:29.834Z,100127.41
2022-11-04T12:34:45.714Z,100127.69
2022-11-04T12:40:02.537Z,100133.94
2022-11-04T12:45:19.394Z,100146.16
2022-11-04T12:50:38.753Z,100144.25
2022-11-04T12:55:50.869Z,100146.16
2022-11-04T13:00:59.856Z,100153.13
2022-11-04T13:06:11.166Z,100158.00
2022-11-04T13:11:24.798Z,100160.63
2022-11-04T13:16:29.487Z,100162.09
2022-11-04T13:21:37.442Z,100164.03
2022-11-04T13:26:40.617Z,100175.53
2022-11-04T13:31:50.819Z,100182.91
2022-11-04T13:37:05.606Z,100196.84
2022-11-04T13:42:37.194Z,100203.53
2022-11-04T13:47:48.570Z,100212.44
2022-11-04T13:52:53.122Z,100224.72
2022-11-04T13:58:02.709Z,100232.50
2022-11-04T14:03:38.792Z,100235.75
2022-11-04T14:09:21.649Z,100243.69
2022-11-04T14:14:24.616Z,100257.06
2022-11-04T14:20:11.843Z,100253.34
2022-11-04T14:25:27.369Z,100267.81
2022-11-04T14:30:49.556Z,100265.50
2022-11-04T14:35:54.154Z,100276.69
2022-11-04T14:41:23.821Z,100278.50
2022-11-04T14:46:29.809Z,100273.63
2022-11-04T14:51:41.894Z,100289.56
2022-11-04T14:56:46.772Z,100286.88
2022-11-04T15:01:52.510Z,100291.09
2022-11-04T15:06:56.166Z,100284.03
2022-11-04T15:12:29.907Z,100282.84
2022-11-04T15:17:34.570Z,100298.13
2022-11-04T15:22:38.945Z,100306.44
2022-11-04T15:27:43.171Z,100310.13
2022-11-04T15:32:57.989Z,100325.34
2022-11-04T15:38:05.325Z,100332.78
2022-11-04T15:43:10.156Z,100340.75
2022-11-04T15:48:24.669Z,100345.91
2022-11-04T15:53:28.711Z,100351.44
2022-11-04T15:58:33.095Z,100363.44
2022-11-04T16:03:35.956Z,100360.59
2022-11-04T16:08:38.899Z,100372.41
2022-11-04T16:13:44.475Z,100372.66
2022-11-04T16:18:53.653Z,100385.41
2022-11-04T16:24:01.412Z,100381.75
2022-11-04T16:29:12.643Z,100394.84
2022-11-04T16:34:15.383Z,100390.41
2022-11-04T16:39:18.150Z,100394.78
2022-11-04T16:44:23.958Z,100405.81
2022-11-04T16:49:27.189Z,100418.38
2022-11-04T16:54:30.130Z,100426.13
2022-11-04T16:59:34.261Z,100427.34
2022-11-04T17:04:37.361Z,100440.19
2022-11-04T17:09:41.570Z,100446.38
2022-11-04T17:14:45.710Z,100452.88
2022-11-04T17:19:48.562Z,100459.94
2022-11-04T17:24:51.342Z,100456.09
2022-11-04T17:29:55.449Z,100463.91
2022-11-04T17:34:58.191Z,100464.31
2022-11-04T17:40:01.025Z,100469.81
2022-11-04T17:45:06.251Z,100470.00
2022-11-04T17:50:10.175Z,100472.34
2022-11-04T17:55:17.262Z,100476.13
2022-11-04T18:00:25.845Z,100483.53
2022-11-04T18:05:29.112Z,100484.53
2022-11-04T18:10:32.012Z,100490.31
2022-11-04T18:15:36.204Z,100487.13
2022-11-04T18:20:38.990Z,100495.69
2022-11-04T18:25:50.450Z,100500.13
2022-11-04T18:30:55.194Z,100500.94
2022-11-04T18:36:04.400Z,100499.97
2022-11-04T18:41:07.280Z,100504.13
2022-11-04T18:46:15.449Z,100511.84
2022-11-04T18:51:20.599Z,100520.13
2022-11-04T18:56:24.462Z,100524.94
2022-11-04T19:01:31.251Z,100526.59
2022-11-04T19:21:52.928Z,100543.66
2022-11-04T19:56:43.417Z,100584.56
2022-11-04T20:01:53.148Z,100586.38
2022-11-04T20:14:20.022Z,100593.09
2022-11-04T20:19:28.220Z,100608.56
2022-11-04T20:24:45.851Z,100606.78
2022-11-04T20:50:17.228Z,100625.97
2022-11-04T21:34:45.325Z,100698.78
2022-11-04T21:39:50.945Z,100706.38
2022-11-04T21:44:53.904Z,100705.38
2022-11-04T21:49:57.157Z,100709.78
2022-11-04T21:55:01.861Z,100725.38
2022-11-04T22:00:06.280Z,100725.16
2022-11-04T22:05:11.336Z,100740.34
2022-11-04T22:10:15.591Z,100740.63
2022-11-04T22:15:39.374Z,100748.38
2022-11-04T22:20:42.151Z,100748.19
2022-11-04T22:25:50.168Z,100753.03
2022-11-04T22:30:53.591Z,100753.91
2022-11-04T22:35:56.342Z,100751.09
2022-11-04T22:41:01.546Z,100743.72
2022-11-04T22:46:08.476Z,100742.22
2022-11-04T22:51:12.342Z,100743.03
2022-11-04T22:56:16.487Z,100753.63
2022-11-04T23:01:19.432Z,100751.22
2022-11-04T23:06:22.259Z,100750.72
2022-11-04T23:11:45.711Z,100749.53
2022-11-04T23:17:07.940Z,100745.94
2022-11-04T23:22:28.696Z,100756.75
2022-11-04T23:27:50.793Z,100760.63
2022-11-04T23:32:56.053Z,100773.75
2022-11-04T23:37:59.869Z,100777.88
2022-11-04T23:43:04.100Z,100781.72
2022-11-04T23:48:25.225Z,100787.78
2022-11-04T23:53:45.456Z,100784.97
2022-11-04T23:59:06.836Z,100795.63
